Time;durP1;ratioP1;P1;durP2;ratioP2;P2;SDS_P1;SDS_P2;PMS_P1;PMS_P2;Temp;Humidity;BMP_temperature;BMP_pressure;BME280_temperature;BME280_humidity;BME280_pressure;Samples;Min_cycle;Max_cycle;Signal;HPM_P1;HPM_P2
2023/10/04 00:02:14;;;;;;;7.20;3.10;;;;;;;5.69;100.00;101118.02;104992;1263;72274;-67
2023/10/04 00:04:43;;;;;;;8.30;2.80;;;;;;;5.56;100.00;101115.64;105086;1257;65814;-69
2023/10/04 00:07:12;;;;;;;6.10;3.20;;;;;;;5.45;100.00;101115.66;105029;1262;71600;-69
2023/10/04 00:09:41;;;;;;;6.00;2.80;;;;;;;5.35;100.00;101120.48;105057;1258;59379;-64
2023/10/04 00:18:28;;;;;;;7.30;3.00;;;;;;;5.08;100.00;101126.86;101882;1297;600479;-60
2023/10/04 00:20:56;;;;;;;5.90;2.70;;;;;;;5.01;100.00;101130.36;104796;1270;61670;-61
2023/10/04 00:23:23;;;;;;;6.20;2.90;;;;;;;4.97;100.00;101124.17;104803;1266;60026;-62
2023/10/04 00:25:52;;;;;;;6.70;3.20;;;;;;;4.93;100.00;101124.48;104958;1268;72194;-65
2023/10/04 00:28:19;;;;;;;6.40;3.00;;;;;;;4.90;100.00;101127.14;104568;1271;68205;-62
2023/10/04 00:30:47;;;;;;;5.20;2.70;;;;;;;4.86;100.00;101129.16;104548;1271;72492;-61
2023/10/04 00:33:15;;;;;;;6.50;3.20;;;;;;;4.81;100.00;101134.04;104619;1263;198211;-61
2023/10/04 00:35:43;;;;;;;8.20;4.30;;;;;;;4.76;100.00;101132.79;105198;1265;59272;-64
2023/10/04 00:38:15;;;;;;;8.60;4.20;;;;;;;4.70;100.00;101127.55;104592;1268;71454;-60
2023/10/04 00:40:43;;;;;;;7.20;3.40;;;;;;;4.64;100.00;101125.59;105445;1258;65857;-61
2023/10/04 00:43:13;;;;;;;8.00;3.90;;;;;;;4.58;100.00;101123.98;105466;1260;72653;-61
2023/10/04 00:45:44;;;;;;;7.50;3.60;;;;;;;4.51;100.00;101125.92;105809;1257;59995;-64
2023/10/04 00:48:13;;;;;;;;;;;;;;;4.47;100.00;101136.12;105480;1260;59998;-61
2023/10/04 00:50:41;;;;;;;7.70;3.60;;;;;;;4.44;100.00;101138.25;105213;1260;71821;-61
2023/10/04 00:53:14;;;;;;;8.60;4.10;;;;;;;4.40;100.00;101135.96;105444;1259;66794;-61
2023/10/04 00:55:45;;;;;;;6.60;3.10;;;;;;;4.38;100.00;101137.97;105389;1255;71453;-62
2023/10/04 00:58:14;;;;;;;;;;;;;;;4.38;100.00;101143.48;105236;1262;59546;-62
2023/10/04 01:00:42;;;;;;;6.90;3.10;;;;;;;4.37;100.00;101143.60;105367;1258;59921;-61
2023/10/04 01:03:10;;;;;;;7.90;3.00;;;;;;;4.34;100.00;101141.41;105328;1259;72998;-63
2023/10/04 01:05:39;;;;;;;5.60;3.00;;;;;;;4.31;100.00;101138.73;105082;1258;66949;-64
2023/10/04 01:08:07;;;;;;;7.40;3.40;;;;;;;4.28;100.00;101139.35;105373;1257;72750;-61
2023/10/04 01:10:37;;;;;;;6.80;3.50;;;;;;;4.24;100.00;101142.59;105385;1261;60076;-61
2023/10/04 01:26:03;;;;;;;10.10;4.90;;;;;;;4.49;100.00;101136.77;103204;1286;613212;-61
2023/10/04 01:34:31;;;;;;;13.80;6.20;;;;;;;4.60;100.00;101130.94;102221;1292;600237;-61
2023/10/04 01:36:59;;;;;;;12.50;5.10;;;;;;;4.55;100.00;101127.90;104910;1267;59678;-62
2023/10/04 01:39:30;;;;;;;10.60;5.00;;;;;;;4.53;100.00;101123.90;104816;1263;60174;-61
2023/10/04 01:41:59;;;;;;;11.90;4.70;;;;;;;4.55;100.00;101126.84;104924;1267;73118;-61
2023/10/04 01:44:27;;;;;;;11.40;5.40;;;;;;;4.57;100.00;101129.13;105050;1268;65571;-63
2023/10/04 01:46:56;;;;;;;11.00;5.70;;;;;;;4.59;100.00;101126.89;105242;1261;72470;-62
2023/10/04 01:49:24;;;;;;;11.70;5.90;;;;;;;4.56;100.00;101130.20;105305;1264;60630;-62
2023/10/04 01:51:53;;;;;;;10.30;5.80;;;;;;;4.51;100.00;101126.96;105266;1262;60643;-63
2023/10/04 01:54:21;;;;;;;14.80;5.30;;;;;;;4.49;100.00;101122.86;105334;1258;71033;-62
2023/10/04 01:56:48;;;;;;;13.80;5.90;;;;;;;4.46;100.00;101119.84;105326;1258;66518;-63
2023/10/04 01:59:17;;;;;;;17.40;5.80;;;;;;;4.43;100.00;101114.91;105102;1263;73084;-62
2023/10/04 02:01:46;;;;;;;9.30;5.50;;;;;;;4.39;100.00;101117.30;105302;1261;60049;-64
2023/10/04 02:04:14;;;;;;;9.60;5.10;;;;;;;4.32;100.00;101121.11;105074;1257;59548;-62
2023/10/04 02:06:42;;;;;;;12.70;5.50;;;;;;;4.29;100.00;101124.23;105275;1260;73048;-63
2023/10/04 02:09:11;;;;;;;10.90;5.60;;;;;;;4.29;100.00;101123.71;105062;1263;65780;-63
2023/10/04 02:11:41;;;;;;;10.70;5.40;;;;;;;4.30;100.00;101124.16;105503;1264;71650;-64
2023/10/04 02:31:02;;;;;;;10.10;5.80;;;;;;;4.70;100.00;101110.81;102307;1292;613262;-62
2023/10/04 02:33:34;;;;;;;9.20;5.90;;;;;;;4.75;100.00;101105.65;105172;1260;118841;-64
2023/10/04 02:36:06;;;;;;;11.20;5.30;;;;;;;4.66;100.00;101108.44;105260;1262;59270;-64
2023/10/04 02:38:35;;;;;;;9.80;5.10;;;;;;;4.55;100.00;101114.45;105181;1258;71028;-62
2023/10/04 02:41:05;;;;;;;10.50;4.90;;;;;;;4.45;100.00;101113.07;105585;1256;67496;-63
2023/10/04 02:43:33;;;;;;;11.30;4.60;;;;;;;4.36;100.00;101115.82;105309;1256;73509;-63
2023/10/04 02:46:01;;;;;;;10.90;5.40;;;;;;;4.25;100.00;101114.48;106315;1253;60924;-64
2023/10/04 02:48:34;;;;;;;14.90;5.80;;;;;;;4.15;100.00;101112.14;106158;1251;59523;-63
2023/10/04 02:51:04;;;;;;;8.90;4.80;;;;;;;4.06;100.00;101114.01;108241;1256;71028;-64
2023/10/04 02:53:32;;;;;;;14.00;4.60;;;;;;;3.98;100.00;101112.42;105525;1259;67032;-63
2023/10/04 02:56:06;;;;;;;8.80;4.80;;;;;;;3.89;100.00;101110.85;105789;1253;72509;-65
2023/10/04 02:58:37;;;;;;;9.50;5.10;;;;;;;3.81;100.00;101112.20;105596;1259;60942;-67
2023/10/04 03:01:05;;;;;;;12.30;4.90;;;;;;;3.72;100.00;101107.37;105872;1253;60083;-66
2023/10/04 03:03:35;;;;;;;12.00;4.80;;;;;;;3.65;100.00;101107.59;105658;1258;73958;-65
2023/10/04 03:24:54;;;;;;;9.80;5.30;;;;;;;3.76;100.00;101111.05;101768;1296;614267;-65
2023/10/04 03:27:24;;;;;;;8.60;5.40;;;;;;;3.88;100.00;101112.19;104482;1272;134461;-66
2023/10/04 03:41:31;;;;;;;13.00;7.20;;;;;;;4.08;100.00;101106.30;102396;1290;614172;-64
2023/10/04 03:44:05;;;;;;;35.00;21.10;;;;;;;4.20;100.00;101111.27;103864;1268;1090532;-63
2023/10/04 03:46:34;;;;;;;52.50;28.50;;;;;;;4.20;100.00;101114.19;108171;1266;58816;-63
2023/10/04 03:49:02;;;;;;;58.30;29.80;;;;;;;4.23;100.00;101112.58;108218;1267;71226;-63
2023/10/04 03:51:30;;;;;;;48.10;22.90;;;;;;;4.25;100.00;101113.40;108141;1267;67820;-66
2023/10/04 03:54:06;;;;;;;26.60;14.80;;;;;;;4.35;100.00;101112.81;108169;1267;73544;-64
2023/10/04 03:56:37;;;;;;;23.20;15.20;;;;;;;4.54;100.00;101110.38;108182;1267;59753;-63
2023/10/04 03:59:07;;;;;;;27.30;15.30;;;;;;;4.81;100.00;101114.43;108326;1267;58821;-66
2023/10/04 04:01:37;;;;;;;24.50;15.10;;;;;;;5.13;100.00;101117.15;108170;1267;72902;-64
2023/10/04 04:04:06;;;;;;;21.90;12.70;;;;;;;5.47;100.00;101119.98;108309;1267;65678;-64
2023/10/04 04:06:35;;;;;;;18.30;10.30;;;;;;;5.80;100.00;101123.77;108190;1267;72424;-64
2023/10/04 04:09:08;;;;;;;15.10;8.50;;;;;;;6.09;100.00;101129.05;108132;1267;59174;-64
2023/10/04 04:11:36;;;;;;;18.60;8.20;;;;;;;6.43;100.00;101128.33;108338;1265;59152;-64
2023/10/04 04:14:07;;;;;;;13.20;7.90;;;;;;;6.86;100.00;101127.85;108334;1267;73172;-63
2023/10/04 04:16:37;;;;;;;12.80;7.00;;;;;;;7.32;100.00;101126.05;108355;1266;66853;-63
2023/10/04 04:31:52;;;;;;;23.40;12.80;;;;;;;9.80;100.00;101120.14;103195;1285;613250;-64
2023/10/04 04:34:22;;;;;;;28.10;13.50;;;;;;;10.71;100.00;101113.11;104800;1270;103156;-64
2023/10/04 04:36:51;;;;;;;22.20;11.90;;;;;;;11.04;100.00;101102.14;104549;1263;60267;-67
2023/10/04 04:50:27;;;;;;;13.20;7.60;;;;;;;11.30;100.00;101074.61;102796;1286;613070;-66
2023/10/04 04:52:55;;;;;;;10.30;6.90;;;;;;;11.29;100.00;101070.39;104852;1266;106649;-67
2023/10/04 04:55:26;;;;;;;10.00;6.60;;;;;;;11.25;100.00;101067.32;104553;1267;59781;-64
2023/10/04 04:57:54;;;;;;;10.70;6.50;;;;;;;11.27;100.00;101070.70;104495;1270;72264;-64
2023/10/04 05:00:31;;;;;;;12.10;7.10;;;;;;;11.29;100.00;101070.64;104541;1267;65883;-67
2023/10/04 05:03:00;;;;;;;12.50;6.80;;;;;;;11.34;100.00;101071.67;104986;1269;73094;-64
2023/10/04 05:05:29;;;;;;;11.30;6.00;;;;;;;11.46;100.00;101075.23;104603;1270;59919;-64
2023/10/04 05:07:57;;;;;;;11.00;6.40;;;;;;;11.56;100.00;101079.97;105203;1266;59857;-66
2023/10/04 05:10:29;;;;;;;12.10;7.00;;;;;;;11.65;100.00;101076.47;104866;1266;71016;-65
2023/10/04 05:12:57;;;;;;;13.10;8.00;;;;;;;11.74;100.00;101076.40;104838;1270;65721;-68
2023/10/04 05:15:42;;;;;;;12.70;7.30;;;;;;;11.82;100.00;101072.81;104566;1267;72783;-61
2023/10/04 05:33:14;;;;;;;15.80;8.50;;;;;;;12.81;100.00;101069.75;101861;1297;613380;-64
2023/10/04 05:35:43;;;;;;;15.20;8.60;;;;;;;13.17;100.00;101065.08;104827;1266;101349;-64
2023/10/04 05:38:16;;;;;;;13.20;7.90;;;;;;;13.35;100.00;101063.38;104717;1267;59177;-64
2023/10/04 05:40:46;;;;;;;14.70;7.80;;;;;;;13.54;100.00;101067.33;104591;1266;73090;-63
2023/10/04 05:43:15;;;;;;;16.20;7.10;;;;;;;13.74;100.00;101065.84;104613;1266;65563;-64
2023/10/04 05:45:43;;;;;;;19.00;9.20;;;;;;;14.01;100.00;101064.20;104624;1270;71459;-63
2023/10/04 05:48:12;;;;;;;12.20;8.40;;;;;;;14.29;100.00;101068.08;104330;1267;59349;-64
2023/10/04 05:50:40;;;;;;;12.30;8.60;;;;;;;14.67;100.00;101063.60;104669;1271;59297;-65
2023/10/04 05:53:08;;;;;;;15.30;8.20;;;;;;;15.17;100.00;101061.27;104580;1267;71027;-64
2023/10/04 05:55:37;;;;;;;14.60;9.50;;;;;;;15.76;100.00;101055.13;104706;1269;67557;-66
2023/10/04 05:58:10;;;;;;;12.50;8.70;;;;;;;16.43;100.00;101059.08;104334;1274;72598;-64
2023/10/04 06:00:40;;;;;;;13.70;8.30;;;;;;;17.12;100.00;101052.35;104212;1272;60102;-64
2023/10/04 06:03:11;;;;;;;16.10;8.00;;;;;;;17.79;100.00;101053.08;104398;1267;60508;-64
2023/10/04 06:27:55;;;;;;;10.80;7.80;;;;;;;23.15;52.27;101033.94;101692;1301;612905;-61
2023/10/04 06:30:24;;;;;;;12.90;7.00;;;;;;;23.88;45.32;101029.41;104357;1267;98978;-63
2023/10/04 06:32:57;;;;;;;11.20;6.70;;;;;;;24.07;44.01;101028.13;104393;1272;59332;-65
2023/10/04 06:35:26;;;;;;;13.40;7.20;;;;;;;24.13;43.60;101022.27;104370;1270;71116;-63
2023/10/04 06:37:58;;;;;;;11.30;6.80;;;;;;;24.02;42.31;101025.05;104511;1273;66882;-65
2023/10/04 06:40:26;;;;;;;11.50;7.20;;;;;;;23.73;42.54;101020.00;104628;1271;72864;-62
2023/10/04 06:42:57;;;;;;;11.30;7.50;;;;;;;23.53;43.08;101025.54;104671;1269;59357;-63
2023/10/04 06:45:26;;;;;;;11.10;7.70;;;;;;;23.29;43.59;101023.98;104656;1269;59273;-64
2023/10/04 06:47:55;;;;;;;11.70;8.60;;;;;;;23.22;44.74;101023.16;104700;1269;72995;-64
2023/10/04 06:50:35;;;;;;;14.20;8.30;;;;;;;23.28;45.25;101028.76;104987;1264;65112;-66
2023/10/04 06:53:04;;;;;;;10.70;9.00;;;;;;;23.48;45.37;101025.64;104589;1267;71987;-65
2023/10/04 06:55:33;;;;;;;15.30;9.60;;;;;;;23.68;44.89;101022.23;104865;1271;60169;-66
2023/10/04 06:58:00;;;;;;;16.00;11.90;;;;;;;23.83;44.59;101019.20;104754;1264;59653;-65
2023/10/04 07:00:36;;;;;;;15.50;11.60;;;;;;;23.94;44.09;101019.61;104929;1264;72879;-65
2023/10/04 07:03:04;;;;;;;17.60;10.90;;;;;;;23.92;44.01;101016.23;104666;1269;69864;-64
2023/10/04 07:05:35;;;;;;;19.00;13.10;;;;;;;23.89;44.55;101013.98;105005;1270;71630;-66
2023/10/04 07:08:09;;;;;;;26.00;22.10;;;;;;;23.87;43.99;101011.88;104686;1267;62708;-64
2023/10/04 07:10:37;;;;;;;56.50;47.60;;;;;;;23.81;44.37;101009.54;104925;1270;60460;-64
2023/10/04 07:13:07;;;;;;;27.10;22.00;;;;;;;23.82;44.62;101009.13;104769;1267;73253;-68
2023/10/04 07:15:35;;;;;;;19.20;15.30;;;;;;;23.86;44.32;101007.19;104688;1264;67529;-68
2023/10/04 07:18:06;;;;;;;19.30;11.70;;;;;;;23.97;44.85;101006.11;104652;1264;75821;-67
2023/10/04 07:20:35;;;;;;;18.20;11.70;;;;;;;24.11;44.53;101003.94;104825;1265;59778;-66
2023/10/04 07:23:04;;;;;;;15.10;10.70;;;;;;;24.23;44.52;101000.34;104905;1269;60045;-69
2023/10/04 07:25:34;;;;;;;16.40;11.40;;;;;;;24.52;44.68;100997.63;105154;1254;72210;-63
2023/10/04 07:28:04;;;;;;;17.80;11.40;;;;;;;24.92;43.86;100992.38;105280;1260;69768;-66
2023/10/04 07:30:33;;;;;;;17.60;11.90;;;;;;;25.25;42.31;100992.00;105223;1254;72663;-64
2023/10/04 07:33:01;;;;;;;16.80;12.20;;;;;;;25.32;41.65;100988.81;105180;1257;60302;-66
2023/10/04 07:35:30;;;;;;;17.80;11.40;;;;;;;25.53;41.59;100980.53;105296;1257;60527;-63
2023/10/04 07:37:58;;;;;;;16.70;11.60;;;;;;;25.87;40.60;100978.59;105295;1254;75243;-65
2023/10/04 07:40:30;;;;;;;20.50;11.80;;;;;;;26.14;39.69;100975.16;105127;1258;66011;-66
2023/10/04 07:42:59;;;;;;;14.70;11.60;;;;;;;26.37;39.51;100974.73;105033;1263;74634;-67
2023/10/04 07:45:29;;;;;;;18.30;12.40;;;;;;;26.69;39.17;100976.02;105060;1260;59724;-67
2023/10/04 07:47:57;;;;;;;17.30;11.20;;;;;;;26.92;38.92;100972.66;105296;1260;61836;-70
2023/10/04 07:50:25;;;;;;;17.40;10.10;;;;;;;27.19;37.92;100971.64;105180;1256;73668;-69
2023/10/04 07:52:55;;;;;;;15.10;10.10;;;;;;;27.48;37.57;100969.89;105107;1260;71125;-67
2023/10/04 07:55:25;;;;;;;12.90;8.00;;;;;;;27.68;37.10;100967.61;105038;1262;72670;-66
2023/10/04 07:57:58;;;;;;;8.20;5.80;;;;;;;27.82;36.08;100968.11;105254;1257;61515;-69
2023/10/04 08:00:26;;;;;;;7.60;5.00;;;;;;;27.77;35.33;100962.05;105298;1260;59600;-66
2023/10/04 08:02:56;;;;;;;7.30;5.10;;;;;;;27.69;35.25;100964.77;105102;1257;75880;-65
2023/10/04 08:05:27;;;;;;;6.80;5.00;;;;;;;27.56;35.29;100969.52;105150;1257;67671;-66
2023/10/04 08:07:56;;;;;;;7.90;4.90;;;;;;;27.47;35.12;100973.29;105547;1254;72704;-66
2023/10/04 08:10:30;;;;;;;8.10;5.10;;;;;;;27.33;35.10;100975.15;105344;1263;60631;-69
2023/10/04 08:12:59;;;;;;;7.80;5.10;;;;;;;27.23;35.70;100968.56;105105;1260;60062;-67
2023/10/04 08:15:30;;;;;;;9.40;5.60;;;;;;;27.26;35.30;100967.96;105097;1262;73692;-65
2023/10/04 08:17:58;;;;;;;7.30;5.00;;;;;;;27.28;35.69;100964.09;105151;1257;67480;-67
2023/10/04 08:20:29;;;;;;;8.80;5.10;;;;;;;27.27;35.40;100962.07;105299;1257;73624;-66
2023/10/04 08:22:58;;;;;;;8.80;5.60;;;;;;;27.12;35.77;100964.82;105177;1262;62574;-67
2023/10/04 08:25:29;;;;;;;9.20;5.40;;;;;;;27.03;35.89;100961.80;105339;1257;62538;-65
2023/10/04 08:27:57;;;;;;;10.40;5.20;;;;;;;26.93;35.95;100960.04;105268;1258;76579;-65
2023/10/04 08:30:25;;;;;;;9.10;5.00;;;;;;;26.93;36.31;100957.02;105049;1260;69314;-65
2023/10/04 08:32:53;;;;;;;8.10;4.10;;;;;;;27.04;36.11;100950.34;105053;1258;75449;-64
2023/10/04 08:35:22;;;;;;;7.30;4.50;;;;;;;27.14;35.07;100947.00;105443;1256;62569;-64
2023/10/04 08:37:58;;;;;;;7.40;3.50;;;;;;;27.23;34.28;100943.52;104952;1257;61660;-64
2023/10/04 08:40:27;;;;;;;9.30;6.80;;;;;;;27.33;34.54;100938.15;106035;1259;76060;-65
2023/10/04 08:42:58;;;;;;;5.80;3.90;;;;;;;27.43;34.15;100934.34;105321;1254;69125;-65
2023/10/04 08:45:27;;;;;;;6.20;3.60;;;;;;;27.52;33.47;100937.73;105513;1260;75162;-67
2023/10/04 08:47:58;;;;;;;6.70;3.60;;;;;;;27.41;33.49;100936.06;105339;1260;60485;-68
2023/10/04 08:50:31;;;;;;;;;;;;;;;27.46;33.63;100930.08;105447;1254;63549;-65
2023/10/04 08:53:23;;;;;;;8.60;6.40;;;;;;;27.59;33.26;100927.67;105916;1254;76167;-67
2023/10/04 08:55:59;;;;;;;7.50;3.90;;;;;;;27.76;33.37;100927.02;105368;1260;70961;-69
2023/10/04 08:58:27;;;;;;;7.90;4.10;;;;;;;27.86;32.87;100924.91;105333;1258;76185;-68
2023/10/04 09:00:55;;;;;;;7.20;3.60;;;;;;;27.87;32.73;100920.22;105637;1260;61786;-66
2023/10/04 09:03:23;;;;;;;6.60;3.70;;;;;;;27.91;32.26;100917.77;105648;1255;61874;-68
2023/10/04 09:05:54;;;;;;;6.00;3.80;;;;;;;27.87;32.20;100914.11;105235;1262;75268;-63
2023/10/04 09:08:24;;;;;;;7.30;4.00;;;;;;;27.86;32.49;100912.89;105364;1257;69964;-63
2023/10/04 09:10:53;;;;;;;6.90;3.90;;;;;;;27.81;32.18;100911.11;105363;1262;75579;-64
2023/10/04 09:13:22;;;;;;;7.50;3.90;;;;;;;27.71;32.21;100905.66;105669;1254;63327;-65
2023/10/04 09:15:51;;;;;;;10.00;4.10;;;;;;;27.67;32.27;100905.80;105477;1256;62462;-68
2023/10/04 09:18:30;;;;;;;7.70;3.70;;;;;;;27.72;31.94;100897.41;105321;1254;75184;-65
2023/10/04 09:21:13;;;;;;;7.10;4.10;;;;;;;27.86;32.51;100897.09;105480;1262;70011;-66
2023/10/04 09:23:43;;;;;;;7.00;4.20;;;;;;;28.10;32.19;100894.58;105390;1261;74859;-63
2023/10/04 09:26:15;;;;;;;6.00;3.30;;;;;;;28.29;31.58;100890.25;105939;1256;62917;-65
2023/10/04 09:28:43;;;;;;;6.50;4.00;;;;;;;28.46;31.05;100881.65;105642;1260;62067;-67
2023/10/04 09:31:12;;;;;;;6.20;4.00;;;;;;;28.49;30.98;100878.61;105363;1254;75820;-63
2023/10/04 09:33:41;;;;;;;6.20;3.60;;;;;;;28.42;30.75;100872.75;105382;1257;68723;-64
2023/10/04 09:36:13;;;;;;;8.40;3.20;;;;;;;28.29;30.87;100873.92;105584;1257;75637;-68
2023/10/04 09:38:41;;;;;;;6.40;3.80;;;;;;;28.14;30.72;100873.38;105324;1257;63311;-64
2023/10/04 09:41:10;;;;;;;8.30;3.70;;;;;;;27.93;30.38;100871.40;105376;1260;62809;-63
2023/10/04 09:43:39;;;;;;;8.20;4.00;;;;;;;27.69;31.03;100864.38;105427;1258;74082;-64
2023/10/04 09:46:12;;;;;;;8.70;3.90;;;;;;;27.54;30.94;100858.57;105534;1260;69196;-66
2023/10/04 09:48:43;;;;;;;6.40;3.70;;;;;;;27.60;31.34;100853.64;105320;1261;76611;-66
2023/10/04 09:51:13;;;;;;;9.40;4.70;;;;;;;27.72;31.20;100850.52;105177;1257;63390;-65
2023/10/04 09:53:42;;;;;;;7.10;4.00;;;;;;;27.68;30.93;100846.54;105297;1254;64008;-62
2023/10/04 09:56:11;;;;;;;7.00;4.30;;;;;;;27.64;30.85;100844.34;105429;1258;75149;-64
2023/10/04 09:58:49;;;;;;;8.40;4.20;;;;;;;27.51;31.10;100840.28;105097;1258;69215;-62
2023/10/04 10:01:22;;;;;;;8.70;4.30;;;;;;;27.32;31.31;100838.24;105228;1257;76107;-62
2023/10/04 10:03:59;;;;;;;8.00;4.50;;;;;;;27.16;31.39;100838.54;105304;1264;61528;-66
2023/10/04 10:06:28;;;;;;;9.10;4.50;;;;;;;27.15;31.49;100832.50;105595;1254;62713;-63
2023/10/04 10:08:58;;;;;;;10.60;4.60;;;;;;;26.97;31.32;100827.46;105642;1257;76841;-62
2023/10/04 10:11:26;;;;;;;6.00;4.30;;;;;;;26.74;31.72;100828.79;105558;1260;70567;-64
2023/10/04 10:13:54;;;;;;;6.40;4.00;;;;;;;26.64;32.01;100829.97;105350;1254;75897;-64
2023/10/04 10:16:23;;;;;;;9.80;4.10;;;;;;;26.69;31.91;100821.17;105266;1262;62193;-63
2023/10/04 10:18:52;;;;;;;7.40;4.80;;;;;;;26.89;32.39;100820.03;105543;1258;61442;-64
2023/10/04 10:21:20;;;;;;;8.30;4.70;;;;;;;27.08;32.24;100809.68;105217;1259;75773;-66
2023/10/04 10:23:57;;;;;;;6.80;4.70;;;;;;;27.17;31.29;100804.98;105220;1254;69203;-65
2023/10/04 10:26:26;;;;;;;8.40;4.30;;;;;;;27.00;31.77;100803.26;105410;1262;75674;-65
2023/10/04 10:29:05;;;;;;;7.20;4.80;;;;;;;26.87;31.55;100796.17;105205;1258;61475;-64
2023/10/04 10:31:33;;;;;;;6.60;4.40;;;;;;;26.69;31.82;100792.98;105491;1258;62847;-67
2023/10/04 10:34:03;;;;;;;7.80;4.50;;;;;;;26.69;31.79;100788.81;105168;1257;74717;-62
2023/10/04 10:36:32;;;;;;;10.00;5.20;;;;;;;26.81;32.05;100779.64;105196;1257;68203;-65
2023/10/04 10:39:00;;;;;;;8.20;4.50;;;;;;;26.94;31.88;100776.17;105343;1255;74767;-67
2023/10/04 10:41:28;;;;;;;7.40;4.60;;;;;;;26.95;31.68;100770.55;104905;1262;62818;-64
2023/10/04 10:44:19;;;;;;;10.20;5.20;;;;;;;26.85;31.74;100772.23;105138;1257;62407;-63
2023/10/04 10:46:58;;;;;;;8.00;4.70;;;;;;;26.60;31.91;100768.45;105362;1257;76078;-64
2023/10/04 10:49:52;;;;;;;12.00;5.70;;;;;;;26.46;32.50;100763.86;105109;1260;68857;-64
2023/10/04 10:52:24;;;;;;;11.00;5.00;;;;;;;26.59;32.62;100761.45;104900;1254;75309;-67
2023/10/04 10:54:53;;;;;;;10.80;5.20;;;;;;;26.76;32.43;100761.44;105133;1257;62972;-68
2023/10/04 10:57:22;;;;;;;18.40;5.90;;;;;;;26.86;32.35;100762.91;105059;1262;62115;-64
2023/10/04 10:59:54;;;;;;;9.20;4.90;;;;;;;26.91;31.92;100767.48;105097;1254;77113;-62
2023/10/04 11:02:25;;;;;;;7.30;5.20;;;;;;;26.93;32.06;100761.85;105474;1260;68693;-69
2023/10/04 11:04:56;;;;;;;12.70;4.90;;;;;;;26.98;31.84;100759.40;104869;1256;74156;-62
2023/10/04 11:07:26;;;;;;;9.90;5.70;;;;;;;26.97;31.93;100760.26;105179;1260;60960;-64
2023/10/04 11:09:54;;;;;;;9.30;5.10;;;;;;;26.95;31.56;100757.77;105204;1254;62684;-66
2023/10/04 11:12:23;;;;;;;8.10;4.60;;;;;;;26.84;31.75;100753.67;105270;1260;76759;-65
2023/10/04 11:14:52;;;;;;;9.00;5.20;;;;;;;26.72;31.61;100749.85;105165;1260;70342;-62
2023/10/04 11:17:22;;;;;;;8.50;5.40;;;;;;;26.51;31.72;100745.82;105078;1254;76637;-64
2023/10/04 11:19:50;;;;;;;;;;;;;;;26.36;32.41;100736.00;105427;1256;61521;-65
2023/10/04 11:22:22;;;;;;;8.50;4.60;;;;;;;26.33;32.53;100733.40;104638;1262;60336;-65
2023/10/04 11:24:50;;;;;;;11.70;5.60;;;;;;;26.25;32.58;100731.25;104937;1263;77238;-63
2023/10/04 11:27:22;;;;;;;10.30;5.20;;;;;;;26.11;32.66;100731.11;105032;1257;69216;-61
2023/10/04 11:29:52;;;;;;;9.50;5.40;;;;;;;26.02;32.41;100729.35;104737;1262;75819;-63
2023/10/04 11:32:21;;;;;;;10.90;6.10;;;;;;;25.99;32.96;100724.49;105068;1258;60981;-63
2023/10/04 11:34:49;;;;;;;9.20;4.80;;;;;;;25.99;32.84;100720.75;105050;1256;60444;-61
2023/10/04 11:37:17;;;;;;;8.20;5.00;;;;;;;25.85;32.82;100723.33;105040;1257;74769;-62
2023/10/04 11:39:45;;;;;;;8.20;5.30;;;;;;;25.72;33.12;100721.45;105086;1256;69825;-65
2023/10/04 11:42:17;;;;;;;9.20;5.30;;;;;;;25.69;33.04;100717.44;105022;1256;73961;-62
2023/10/04 11:44:45;;;;;;;8.00;5.10;;;;;;;25.64;33.33;100716.21;105341;1260;60598;-62
2023/10/04 11:47:15;;;;;;;8.30;5.30;;;;;;;25.61;33.42;100710.02;105105;1256;62388;-64
2023/10/04 11:49:58;;;;;;;7.70;4.80;;;;;;;25.54;33.49;100706.21;105237;1257;74422;-64
2023/10/04 11:52:31;;;;;;;10.00;5.90;;;;;;;25.45;33.52;100702.06;105319;1257;68993;-63
2023/10/04 11:55:00;;;;;;;8.70;5.20;;;;;;;25.38;33.62;100703.68;105568;1261;74150;-63
2023/10/04 11:57:39;;;;;;;9.00;5.00;;;;;;;25.31;33.63;100699.02;105655;1260;61989;-65
2023/10/04 12:00:21;;;;;;;7.30;4.50;;;;;;;25.19;33.25;100690.27;105416;1261;63833;-64
2023/10/04 12:02:49;;;;;;;11.70;6.10;;;;;;;25.06;33.43;100685.95;105141;1257;76133;-63
2023/10/04 12:05:18;;;;;;;9.90;4.30;;;;;;;24.87;33.71;100689.48;104716;1260;70401;-66
2023/10/04 12:07:47;;;;;;;8.70;4.50;;;;;;;24.72;33.96;100686.98;104966;1260;73771;-62
2023/10/04 12:10:15;;;;;;;8.80;4.60;;;;;;;24.64;34.64;100684.20;105585;1256;61916;-63
2023/10/04 12:12:43;;;;;;;8.60;4.70;;;;;;;24.62;34.90;100681.85;105420;1257;60642;-62
2023/10/04 12:15:11;;;;;;;8.90;4.00;;;;;;;24.60;34.86;100679.13;105397;1257;76022;-65
2023/10/04 12:17:39;;;;;;;7.40;4.20;;;;;;;24.51;34.85;100675.02;105376;1261;68619;-63
2023/10/04 12:20:11;;;;;;;9.30;4.30;;;;;;;24.41;35.11;100676.67;105370;1257;75253;-63
2023/10/04 12:22:39;;;;;;;9.90;5.20;;;;;;;24.34;35.04;100675.19;105282;1257;62582;-62
2023/10/04 12:25:07;;;;;;;9.50;4.60;;;;;;;24.27;35.00;100666.60;105672;1260;60940;-65
2023/10/04 12:27:36;;;;;;;8.80;4.50;;;;;;;24.25;35.14;100670.02;105752;1257;76216;-62
2023/10/04 12:30:05;;;;;;;8.70;5.30;;;;;;;24.24;35.20;100666.77;105225;1260;70376;-63
2023/10/04 12:32:33;;;;;;;10.60;5.50;;;;;;;24.25;35.56;100664.59;105300;1257;75272;-62
2023/10/04 12:35:01;;;;;;;8.00;4.80;;;;;;;24.23;35.31;100664.41;105299;1257;61953;-64
2023/10/04 12:37:29;;;;;;;8.40;4.10;;;;;;;24.15;35.37;100667.00;105318;1257;62903;-63
2023/10/04 12:39:57;;;;;;;8.40;5.50;;;;;;;23.99;35.49;100666.22;105463;1256;75140;-62
2023/10/04 12:42:25;;;;;;;9.30;5.00;;;;;;;23.84;35.93;100662.39;105412;1260;68204;-62
2023/10/04 12:44:58;;;;;;;11.90;5.50;;;;;;;23.73;36.59;100663.20;105643;1257;74677;-64
2023/10/04 12:47:26;;;;;;;15.80;5.80;;;;;;;23.67;36.65;100659.92;105185;1261;61513;-62
2023/10/04 12:49:54;;;;;;;11.70;5.20;;;;;;;23.59;36.63;100656.99;105453;1257;61454;-63
2023/10/04 12:52:24;;;;;;;8.50;5.00;;;;;;;23.49;36.69;100654.83;105550;1260;76331;-62
2023/10/04 12:54:52;;;;;;;8.80;4.60;;;;;;;23.42;36.98;100647.39;105636;1256;68807;-64
2023/10/04 12:57:21;;;;;;;13.70;5.70;;;;;;;23.33;36.99;100651.02;105188;1260;74155;-63
2023/10/04 12:59:49;;;;;;;13.40;9.80;;;;;;;23.24;37.28;100648.35;105286;1257;60602;-63
2023/10/04 13:02:18;;;;;;;9.30;6.30;;;;;;;23.10;37.54;100649.34;105654;1256;61774;-65
2023/10/04 13:04:50;;;;;;;8.30;5.50;;;;;;;22.94;38.07;100648.05;105120;1260;76309;-65
2023/10/04 13:07:19;;;;;;;10.00;6.20;;;;;;;22.80;38.71;100647.55;105142;1259;69280;-64
2023/10/04 13:09:47;;;;;;;9.20;5.80;;;;;;;22.67;38.72;100641.77;105189;1256;74225;-63
2023/10/04 13:23:01;;;;;;;20.90;8.70;;;;;;;22.34;40.17;100635.70;103128;1282;613605;-63
2023/10/04 13:25:29;;;;;;;15.90;9.40;;;;;;;22.24;41.20;100633.53;105250;1261;109645;-64
2023/10/04 13:27:57;;;;;;;14.70;8.30;;;;;;;22.17;42.11;100630.92;105320;1263;61430;-66
2023/10/04 13:30:27;;;;;;;13.00;8.30;;;;;;;22.10;42.86;100626.46;104913;1266;75396;-64
2023/10/04 13:32:57;;;;;;;12.80;7.20;;;;;;;22.03;43.13;100625.34;105204;1263;69340;-64
2023/10/04 13:35:25;;;;;;;12.00;7.20;;;;;;;21.95;43.16;100629.05;105502;1263;74204;-66
2023/10/04 13:37:53;;;;;;;26.40;8.90;;;;;;;21.81;43.51;100624.34;105001;1261;63827;-64
2023/10/04 13:59:29;;;;;;;16.80;11.00;;;;;;;21.19;45.15;100617.38;102380;1298;616172;-62
2023/10/04 14:01:58;;;;;;;17.90;11.70;;;;;;;21.07;45.75;100615.58;105881;1259;106705;-65
2023/10/04 14:04:25;;;;;;;21.20;14.70;;;;;;;20.91;46.52;100621.77;105996;1254;61608;-63
2023/10/04 14:06:53;;;;;;;23.40;15.90;;;;;;;20.75;47.74;100618.50;105863;1257;72319;-63
2023/10/04 14:09:23;;;;;;;24.70;15.20;;;;;;;20.58;49.13;100616.74;105872;1252;67569;-66